| time (UTC) | temp F | wind direction | speed knots | gust knots | rain 1hr in | rain 24hr in | rain mn in | humidity % | barometer mb |
| 20260505153040 | 68 | 0.0 | 0.0 | 0.00 | 0.00 | 0.00 | 62 | 1013.4 | |
| 20260505152023 | 67 | 0.0 | 0.0 | 0.00 | 0.00 | 0.00 | 64 | 1013.2 | |
| 20260505151021 | 67 | 0.0 | 0.0 | 0.00 | 0.00 | 0.00 | 65 | 1013.1 | |
| 20260505125018 | 62 | 0.0 | 0.0 | 0.00 | 0.00 | 0.00 | 73 | 1011.4 | |
| 20260505124020 | 61 | 0.0 | 0.0 | 0.00 | 0.00 | 0.00 | 73 | 1011.4 | |
| 20260505123024 | 62 | 0.0 | 0.0 | 0.00 | 0.00 | 0.00 | 70 | 1011.1 | |
| 20260505122027 | 63 | 0.0 | 0.0 | 0.00 | 0.00 | 0.00 | 70 | 1011.0 | |
| 20260505121030 | 63 | 0.0 | 0.0 | 0.00 | 0.00 | 0.00 | 70 | 1010.9 | |
| 20260505120048 | 64 | 0.0 | 0.0 | 0.00 | 0.00 | 0.00 | 70 | 1010.8 | |
| 20260505115018 | 64 | 0.0 | 0.0 | 0.00 | 0.00 | 0.00 | 69 | 1010.8 | |
| 20260505114021 | 64 | 0.0 | 0.0 | 0.00 | 0.00 | 0.00 | 68 | 1010.8 | |
| 20260505113018 | 65 | 0.0 | 0.0 | 0.00 | 0.00 | 0.00 | 68 | 1010.5 | |
| 20260505112017 | 65 | 0.0 | 0.0 | 0.00 | 0.00 | 0.00 | 68 | 1010.4 | |
| 20260505111025 | 65 | 0.0 | 0.0 | 0.00 | 0.00 | 0.00 | 67 | 1010.4 | |
| 20260505102023 | 65 | 0.0 | 0.0 | 0.00 | 0.00 | 0.00 | 67 | 1010.0 | |
| 20260505101026 | 65 | 0.0 | 0.0 | 0.00 | 0.00 | 0.00 | 67 | 1010.0 | |
| 20260505100029 | 65 | 0.0 | 0.0 | 0.00 | 0.00 | 0.00 | 67 | 1009.9 | |
| 20260505095035 | 65 | 0.0 | 0.0 | 0.00 | 0.00 | 0.00 | 67 | 1009.8 | |
| 20260505094018 | 65 | 0.0 | 0.0 | 0.00 | 0.00 | 0.00 | 68 | 1009.6 | |
| 20260505093021 | 65 | 0.0 | 0.0 | 0.00 | 0.00 | 0.00 | 68 | 1009.6 | |
| 20260505092024 | 65 | 0.0 | 0.0 | 0.00 | 0.00 | 0.00 | 68 | 1009.8 | |
| 20260505091027 | 64 | 0.0 | 0.0 | 0.00 | 0.00 | 0.00 | 69 | 1009.8 | |
| 20260505090030 | 63 | 0.0 | 0.0 | 0.00 | 0.00 | 0.00 | 69 | 1009.8 | |
| 20260505085037 | 63 | 0.0 | 0.0 | 0.00 | 0.00 | 0.00 | 68 | 1009.8 | |
| 20260505084019 | 64 | 0.0 | 0.0 | 0.00 | 0.00 | 0.00 | 69 | 1009.6 | |
| 20260505083042 | 64 | 0.0 | 0.0 | 0.00 | 0.00 | 0.00 | 69 | 1009.4 | |
| 20260505082027 | 64 | 0.0 | 0.0 | 0.00 | 0.00 | 0.00 | 69 | 1009.3 | |
| 20260505081021 | 63 | 0.0 | 0.0 | 0.00 | 0.00 | 0.00 | 70 | 1009.3 | |
| 20260505080019 | 62 | 0.0 | 0.0 | 0.00 | 0.00 | 0.00 | 69 | 1009.3 | |
| 20260505075056 | 62 | 0.0 | 0.0 | 0.00 | 0.00 | 0.00 | 67 | 1009.1 | |
| 20260505074019 | 63 | 0.0 | 0.0 | 0.00 | 0.00 | 0.00 | 66 | 1008.9 | |
| 20260505073023 | 64 | 0.0 | 0.0 | 0.00 | 0.00 | 0.00 | 65 | 1008.9 | |
| 20260505072026 | 64 | 0.0 | 0.0 | 0.00 | 0.00 | 0.00 | 65 | 1008.8 | |
| 20260505071029 | 65 | 0.0 | 0.0 | 0.00 | 0.00 | 0.00 | 66 | 1008.8 | |
| 20260505070047 | 66 | 0.0 | 0.0 | 0.00 | 0.00 | 0.00 | 63 | 1008.8 | |
| 20260505065052 | 66 | 0.0 | 0.0 | 0.00 | 0.00 | 0.00 | 63 | 1008.6 | |
| 20260505064033 | 66 | 0.0 | 0.0 | 0.00 | 0.00 | 0.00 | 62 | 1008.3 | |
| 20260505063017 | 66 | 0.0 | 0.0 | 0.00 | 0.00 | 0.00 | 63 | 1008.3 | |
| 20260505062020 | 67 | 0.0 | 0.0 | 0.00 | 0.00 | 0.00 | 62 | 1008.3 | |
| 20260505061024 | 67 | 0.0 | 0.0 | 0.00 | 0.00 | 0.00 | 61 | 1008.2 | |
| 20260505060027 | 67 | 0.0 | 0.0 | 0.00 | 0.00 | 0.00 | 60 | 1008.1 | |
| 20260505055025 | 68 | 0.0 | 0.0 | 0.00 | 0.00 | 0.00 | 60 | 1008.0 | |
| 20260505054015 | 68 | 0.0 | 0.0 | 0.00 | 0.00 | 0.00 | 58 | 1007.8 | |
| 20260505053020 | 69 | 0.0 | 0.0 | 0.00 | 0.00 | 0.00 | 57 | 1007.8 | |
| 20260505052037 | 68 | 0.0 | 0.0 | 0.00 | 0.00 | 0.00 | 57 | 1007.6 | |
| 20260505051031 | 68 | 0.0 | 0.0 | 0.00 | 0.00 | 0.00 | 58 | 1007.7 | |
| 20260505041026 | 73 | 0.0 | 0.0 | 0.00 | 0.00 | 0.00 | 49 | 1007.3 | |
| 20260505040029 | 73 | 0.0 | 0.0 | 0.00 | 0.00 | 0.00 | 48 | 1007.3 | |
| 20260505035032 | 73 | 0.0 | 0.0 | 0.00 | 0.00 | 0.00 | 48 | 1007.1 | |
| 20260505034017 | 74 | 0.0 | 0.0 | 0.00 | 0.00 | 0.00 | 48 | 1007.0 | |
| 20260505033023 | 75 | 0.0 | 0.0 | 0.00 | 0.00 | 0.00 | 48 | 1006.9 | |
| 20260505032025 | 76 | 0.0 | 0.0 | 0.00 | 0.00 | 0.00 | 42 | 1006.8 | |
| 20260505031027 | 78 | 0.0 | 0.0 | 0.00 | 0.00 | 0.00 | 37 | 1006.8 | |
| 20260505030031 | 79 | 0.0 | 0.0 | 0.00 | 0.00 | 0.00 | 38 | 1006.8 | |
| 20260505025016 | 80 | 0.0 | 0.0 | 0.00 | 0.00 | 0.00 | 37 | 1006.8 | |
| 20260505024020 | 81 | 0.0 | 0.0 | 0.00 | 0.00 | 0.00 | 36 | 1006.8 | |
| 20260505023022 | 82 | 0.0 | 0.0 | 0.00 | 0.00 | 0.00 | 34 | 1006.8 | |
| 20260505022025 | 83 | 0.0 | 0.0 | 0.00 | 0.00 | 0.00 | 33 | 1006.8 | |
| 20260505021023 | 84 | 0.0 | 0.0 | 0.00 | 0.00 | 0.00 | 30 | 1006.8 | |
| 20260505020020 | 85 | 0.0 | 0.0 | 0.00 | 0.00 | 0.00 | 28 | 1006.8 | |
| 20260505015118 | 86 | 0.0 | 0.0 | 0.00 | 0.00 | 0.00 | 24 | 1006.9 | |
| 20260505014020 | 87 | 0.0 | 0.0 | 0.00 | 0.00 | 0.00 | 22 | 1006.8 | |
| 20260505013023 | 88 | 0.0 | 0.0 | 0.00 | 0.00 | 0.00 | 22 | 1006.9 | |
| 20260505012027 | 90 | 0.0 | 0.0 | 0.00 | 0.00 | 0.00 | 21 | 1007.1 | |
| 20260505011030 | 91 | 0.0 | 0.0 | 0.00 | 0.00 | 0.00 | 20 | 1007.1 | |
| 20260505010016 | 94 | 0.0 | 0.0 | 0.00 | 0.00 | 0.00 | 19 | 1007.1 | |
| 20260505005058 | 96 | 0.0 | 0.0 | 0.00 | 0.00 | 0.00 | 19 | 1007.1 | |
| 20260505004023 | 98 | 0.0 | 0.0 | 0.00 | 0.00 | 0.00 | 18 | 1007.1 | |
| 20260505003026 | 98 | 0.0 | 0.0 | 0.00 | 0.00 | 0.00 | 17 | 1007.3 | |
| 20260505002029 | 100 | 0.0 | 0.0 | 0.00 | 0.00 | 0.00 | 17 | 1007.3 | |
| 20260505001032 | 104 | 0.0 | 0.0 | 0.00 | 0.00 | 0.00 | 17 | 1007.3 | |
| 20260505000058 | 102 | 0.0 | 0.0 | 0.00 | 0.00 | 0.00 | 17 | 1007.3 | |
| 20260504235020 | 104 | 0.0 | 0.0 | 0.00 | 0.00 | 0.00 | 18 | 1007.4 | |
| 20260504234023 | 104 | 0.0 | 0.0 | 0.00 | 0.00 | 0.00 | 16 | 1007.5 | |
| 20260504233026 | 105 | 0.0 | 0.0 | 0.00 | 0.00 | 0.00 | 16 | 1007.6 | |
| 20260504232029 | 103 | 0.0 | 0.0 | 0.00 | 0.00 | 0.00 | 17 | 1007.8 | |
| 20260504231033 | 105 | 0.0 | 0.0 | 0.00 | 0.00 | 0.00 | 17 | 1007.8 | |
| 20260504230017 | 105 | 0.0 | 0.0 | 0.00 | 0.00 | 0.00 | 16 | 1007.8 | |
| 20260504225022 | 104 | 0.0 | 0.0 | 0.00 | 0.00 | 0.00 | 19 | 1007.9 | |
| 20260504224024 | 105 | 0.0 | 0.0 | 0.00 | 0.00 | 0.00 | 18 | 1008.1 | |
| 20260504223021 | 103 | 0.0 | 0.0 | 0.00 | 0.00 | 0.00 | 17 | 1008.3 | |
| 20260504222019 | 105 | 0.0 | 0.0 | 0.00 | 0.00 | 0.00 | 17 | 1008.4 | |
| 20260504221015 | 104 | 0.0 | 0.0 | 0.00 | 0.00 | 0.00 | 17 | 1008.5 | |
| 20260504220019 | 103 | 0.0 | 0.0 | 0.00 | 0.00 | 0.00 | 19 | 1008.6 | |
| 20260504215022 | 105 | 0.0 | 0.0 | 0.00 | 0.00 | 0.00 | 18 | 1008.8 | |
| 20260504214025 | 103 | 0.0 | 0.0 | 0.00 | 0.00 | 0.00 | 19 | 1008.9 | |
| 20260504213028 | 105 | 0.0 | 0.0 | 0.00 | 0.00 | 0.00 | 18 | 1009.1 | |
| 20260504212032 | 105 | 0.0 | 0.0 | 0.00 | 0.00 | 0.00 | 19 | 1009.1 | |
| 20260504211017 | 102 | 0.0 | 0.0 | 0.00 | 0.00 | 0.00 | 20 | 1009.2 | |
| 20260504210020 | 103 | 0.0 | 0.0 | 0.00 | 0.00 | 0.00 | 21 | 1009.3 | |
| 20260504205044 | 104 | 0.0 | 0.0 | 0.00 | 0.00 | 0.00 | 20 | 1009.5 | |
| 20260504204028 | 103 | 0.0 | 0.0 | 0.00 | 0.00 | 0.00 | 20 | 1009.6 | |
| 20260504203029 | 101 | 0.0 | 0.0 | 0.00 | 0.00 | 0.00 | 21 | 1009.8 | |
| 20260504202033 | 101 | 0.0 | 0.0 | 0.00 | 0.00 | 0.00 | 21 | 1009.8 | |
| 20260504201038 | 102 | 0.0 | 0.0 | 0.00 | 0.00 | 0.00 | 20 | 1009.9 | |
| 20260504200022 | 103 | 0.0 | 0.0 | 0.00 | 0.00 | 0.00 | 21 | 1010.0 | |
| 20260504195025 | 99 | 0.0 | 0.0 | 0.00 | 0.00 | 0.00 | 22 | 1010.1 | |
| 20260504194027 | 98 | 0.0 | 0.0 | 0.00 | 0.00 | 0.00 | 23 | 1010.1 | |
| 20260504193031 | 98 | 0.0 | 0.0 | 0.00 | 0.00 | 0.00 | 23 | 1010.3 | |
| 20260504192016 | 97 | 0.0 | 0.0 | 0.00 | 0.00 | 0.00 | 24 | 1010.3 | |
| 20260504191019 | 95 | 0.0 | 0.0 | 0.00 | 0.00 | 0.00 | 24 | 1010.4 | |
| 20260504190023 | 92 | 0.0 | 0.0 | 0.00 | 0.00 | 0.00 | 27 | 1010.5 | |
| 20260504185040 | 91 | 0.0 | 0.0 | 0.00 | 0.00 | 0.00 | 27 | 1010.5 | |
| 20260504184016 | 92 | 0.0 | 0.0 | 0.00 | 0.00 | 0.00 | 26 | 1010.6 | |
| 20260504183031 | 92 | 0.0 | 0.0 | 0.00 | 0.00 | 0.00 | 29 | 1010.8 | |
| 20260504182037 | 89 | 0.0 | 0.0 | 0.00 | 0.00 | 0.00 | 29 | 1010.8 | |
| 20260504181020 | 89 | 0.0 | 0.0 | 0.00 | 0.00 | 0.00 | 31 | 1010.9 | |
| 20260504180045 | 88 | 0.0 | 0.0 | 0.00 | 0.00 | 0.00 | 30 | 1010.9 | |
| 20260504175127 | 84 | 0.0 | 0.0 | 0.00 | 0.00 | 0.00 | 35 | 1010.9 | |
| 20260504174030 | 82 | 0.0 | 0.0 | 0.00 | 0.00 | 0.00 | 36 | 1010.9 | |
| 20260504173015 | 81 | 0.0 | 0.0 | 0.00 | 0.00 | 0.00 | 38 | 1010.9 | |
| 20260504172018 | 81 | 0.0 | 0.0 | 0.00 | 0.00 | 0.00 | 39 | 1010.9 | |
| 20260504171022 | 78 | 0.0 | 0.0 | 0.00 | 0.00 | 0.00 | 43 | 1010.9 |